Nearby METAR Reports

 

KGEU - Glendale, Arizona, USA
Distance from station: S 3mi, 4km
Updated: Wed, 21-Nov-2018 1:55pm MST
Partly cloudy
Partly cloudy
 Wind from SSE
Wind: SSE 3 mph , 6 km/h
Temperature: 72°F , 22°C
Dew Point: 32°F , 0°C
Humidity: 23%
Barometer: 30.09 inHg , 1019 hPa
Clouds: Partly cloudy
Visibility: 10 miles , 16 km
Cloud details: Few Clouds 11000 ft
Partly cloudy 25000 ft
2018/11/21 20:55 KGEU 212055Z 16003KT 10SM FEW110 SCT250 22/00 A3009
KLUF - Luke Afb/Glendal, Arizona, USA
Distance from station: SW 5mi, 8km
Updated: Wed, 21-Nov-2018 1:58pm MST
Clear
Clear
 Wind from S
Wind: S 5 mph , 7 km/h
Temperature: 72°F , 22°C
Dew Point: 32°F , 0°C
Humidity: 23%
Barometer: 30.06 inHg , 1017.9 hPa
Clouds: Clear
Visibility: 10 miles , 16 km
2018/11/21 20:58 KLUF 212058Z AUTO 19004KT 10SM CLR 22/00 A3006 RMK AO2 SLP176 60000 T02220001 57028 $
 
KGYR - Goodyear Municip, Arizona, USA
Distance from station: SSW 11mi, 18km
Updated: Wed, 21-Nov-2018 1:47pm MST
Partly cloudy
Partly cloudy
 Wind from varies
Wind: varies 5 mph , 7 km/h
Temperature: 72°F , 22°C
Dew Point: 34°F , 1°C
Humidity: 25%
Barometer: 30.09 inHg , 1019 hPa
Clouds: Partly cloudy
Visibility: 10 miles , 16 km
Cloud details: Partly cloudy 20000 ft
2018/11/21 20:47 KGYR 212047Z VRB04KT 10SM SCT200 22/01 A3009
KDVT - Phoenix/Deer Vly, Arizona, USA
Distance from station: ENE 16mi, 26km
Updated: Wed, 21-Nov-2018 1:53pm MST
Clear
Clear
 Wind from ENE
Wind: ENE 3 mph , 6 km/h
Temperature: 72°F , 22°C
Dew Point: 28°F , -2°C
Humidity: 20%
Barometer: 30.08 inHg , 1018.6 hPa
Clouds: Clear
Visibility: 10 miles , 16 km
2018/11/21 20:53 KDVT 212053Z 07003KT 10SM CLR 22/M02 A3008 RMK AO2 SLP171 T02221022 58026
 
KPHX - Phoenix/Sky Hrbr, Arizona, USA
Distance from station: ESE 19mi, 31km
Updated: Wed, 21-Nov-2018 1:51pm MST
Few Clouds
Few Clouds
 Wind from SSW
Wind: SSW 3 mph , 6 km/h
Temperature: 72°F , 22°C
Dew Point: 32°F , 0°C
Humidity: 23%
Barometer: 30.06 inHg , 1017.9 hPa
Clouds: Few Clouds
Visibility: 10 miles , 16 km
Cloud details: Few Clouds 25000 ft
2018/11/21 20:51 KPHX 212051Z 20003KT 10SM FEW250 22/00 A3006 RMK AO2 SLP169 T02220000 58028
KSDL - Scottsdale, Arizona, USA
Distance from station: E 23mi, 37km
Updated: Wed, 21-Nov-2018 1:53pm MST
Clear
Clear
 Wind from varies
Wind: varies 3 mph , 6 km/h
Temperature: 72°F , 22°C
Dew Point: 27°F , -3°C
Humidity: 19%
Barometer: 30.09 inHg , 1019 hPa
Clouds: Clear
Visibility: 10 miles , 16 km
2018/11/21 20:53 KSDL 212053Z VRB03KT 10SM CLR 22/M03 A3009 RMK AO2 SLP175 T02221033 58025
 
KBXK - Buckeye, Arizona, USA
Distance from station: WSW 24mi, 39km
Updated: Wed, 21-Nov-2018 1:35pm MST
Clear
Clear
 Wind from SE
Wind: SE 5 mph , 7 km/h
Temperature: 70°F , 21°C
Dew Point: 32°F , 0°C
Humidity: 25%
Barometer: 30.10 inHg , 1019.3 hPa
Clouds: Clear
Visibility: 10 miles , 16 km
2018/11/21 20:35 KBXK 212035Z AUTO 14004KT 10SM CLR 21/00 A3010 RMK AO1
KFFZ - Mesa/Falcon Fld, Arizona, USA
Distance from station: E 35mi, 56km
Updated: Wed, 21-Nov-2018 1:54pm MST
Clear
Clear
 Wind from calm
Wind: Calm
Temperature: 72°F , 22°C
Dew Point: 27°F , -3°C
Humidity: 19%
Barometer: 30.07 inHg , 1018.3 hPa
Clouds: Clear
Visibility: 10 miles , 16 km
2018/11/21 20:54 KFFZ 212054Z 00000KT 10SM CLR 22/M03 A3007 RMK AO2 SLP169 T02221028 58027
 
KIWA - Chandler/Mesa, Arizona, USA
Distance from station: ESE 42mi, 68km
Updated: Wed, 21-Nov-2018 1:47pm MST
Few Clouds
Few Clouds
 Wind from varies
Wind: varies 3 mph , 6 km/h
Temperature: 73°F , 23°C
Dew Point: 30°F , -1°C
Humidity: 20%
Barometer: 30.09 inHg , 1019 hPa
Clouds: Few Clouds
Visibility: 35 miles , 56 km
Cloud details: Few Clouds 22000 ft
2018/11/21 20:47 KIWA 212047Z VRB03KT 35SM FEW220 23/M01 A3009
KCGZ - Casa Granda, Arizona, USA
Distance from station: SE 53mi, 85km
Updated: Wed, 21-Nov-2018 1:56pm MST
Clear
Clear
 Wind from W
Wind: W 3 mph , 6 km/h
Temperature: 70°F , 21°C
Dew Point: 34°F , 1°C
Humidity: 27%
Barometer: 30.09 inHg , 1019 hPa
Clouds: Clear
Visibility: 10 miles , 16 km
2018/11/21 20:56 KCGZ 212056Z AUTO 28003KT 10SM CLR 21/01 A3009 RMK AO2 SLP187 T02060006 56026 $
 
KGXF - Gila Bend (aaf), Arizona, USA
Distance from station: SSW 54mi, 87km
Updated: Wed, 21-Nov-2018 1:58pm MST
Clear
Clear
 Wind from NW
Wind: NW 7 mph , 11 km/h
Temperature: 72°F , 22°C
Dew Point: 37°F , 3°C
Humidity: 29%
Barometer: 30.07 inHg , 1018.3 hPa
Clouds: Clear
Visibility: 10 miles , 16 km
2018/11/21 20:58 KGXF 212058Z AUTO 32006KT 10SM CLR 22/03 A3007 RMK AO2 SLP177 T02170025 57023
KPAN - Payson, Arizona, USA
Distance from station: NE 73mi, 117km
Updated: Wed, 21-Nov-2018 1:55pm MST
Clear
Clear
 Wind from varies
Wind: varies 6 mph , 9 km/h
Temperature: 61°F , 16°C
Dew Point: 25°F , -4°C
Humidity: 25%
Barometer: 30.19 inHg , 1022.4 hPa
Clouds: Clear
Visibility: 10 miles , 16 km
2018/11/21 20:55 KPAN 212055Z AUTO VRB05KT 10SM CLR 16/M04 A3019 RMK AO2
 
KPRC - Prescott, Arizona, USA
Distance from station: N 75mi, 121km
Updated: Wed, 21-Nov-2018 1:53pm MST
Clear
Clear
 Wind from E
Wind: E 8 mph , 13 km/h
Temperature: 63°F , 17°C
Dew Point: 19°F , -7°C
Humidity: 19%
Barometer: 30.17 inHg , 1021.7 hPa
Clouds: Clear
Visibility: 10 miles , 16 km
2018/11/21 20:53 KPRC 212053Z 08007KT 10SM CLR 17/M07 A3017 RMK AO2 SLP181 T01721067 58023
KSEZ - Sedona, Arizona, USA
Distance from station: NNE 93mi, 150km
Updated: Wed, 21-Nov-2018 1:55pm MST
Clear
Clear
 Wind from ENE
Wind: ENE 3 mph , 6 km/h
Temperature: 63°F , 17°C
Dew Point: 23°F , -5°C
Humidity: 22%
Barometer: 30.19 inHg , 1022.4 hPa
Clouds: Clear
Visibility: 10 miles , 16 km
2018/11/21 20:55 KSEZ 212055Z AUTO 07003KT 10SM CLR 17/M05 A3019 RMK AO2
 
KFLG - Flagstaff, Arizona, USA
Distance from station: NNE 114mi, 184km
Updated: Wed, 21-Nov-2018 1:57pm MST
Clear
Clear
 Wind from N
Wind: N 8 mph , 13 km/h
Temperature: 54°F , 12°C
Dew Point: 18°F , -8°C
Humidity: 24%
Barometer: 30.24 inHg , 1024 hPa
Clouds: Clear
Visibility: 10 miles , 16 km
2018/11/21 20:57 KFLG 212057Z 01007KT 10SM CLR 12/M08 A3024 RMK AO2 SLP215 T01221083 56017
KRYN - Tucson/Ryan Fld, Arizona, USA
Distance from station: SE 118mi, 190km
Updated: Wed, 21-Nov-2018 1:55pm MST
Clear
Clear
 Wind from calm
Wind: Calm
Temperature: 72°F , 22°C
Dew Point: 34°F , 1°C
Humidity: 25%
Barometer: 30.10 inHg , 1019.3 hPa
Clouds: Clear
Visibility: 10 miles , 16 km
2018/11/21 20:55 KRYN 212055Z 00000KT 10SM CLR 22/01 A3010
 
KTUS - Tucson, Arizona, USA
Distance from station: SE 127mi, 204km
Updated: Wed, 21-Nov-2018 1:53pm MST
Clear
Clear
 Wind from varies
Wind: varies 3 mph , 6 km/h
Temperature: 73°F , 23°C
Dew Point: 34°F , 1°C
Humidity: 23%
Barometer: 30.10 inHg , 1019.3 hPa
Clouds: Clear
Visibility: 10 miles , 16 km
2018/11/21 20:53 KTUS 212053Z VRB03KT 10SM CLR 23/01 A3010 RMK AO2 SLP168 T02330011 56024
KDMA - Davis/Tucson, Arizona, USA
Distance from station: SE 128mi, 206km
Updated: Wed, 21-Nov-2018 1:58pm MST
Clear
Clear
 Wind from calm
Wind: Calm
Temperature: 75°F , 24°C
Dew Point: 34°F , 1°C
Humidity: 22%
Barometer: 30.08 inHg , 1018.6 hPa
Clouds: Clear
Visibility: 10 miles , 16 km
2018/11/21 20:58 KDMA 212058Z AUTO 00000KT 10SM CLR 24/01 A3008 RMK AO2 SLP162 57022
 
KINW - Winslow, Arizona, USA
Distance from station: NE 136mi, 219km
Updated: Wed, 21-Nov-2018 1:56pm MST
Clear
Clear
 Wind from calm
Wind: Calm
Temperature: 54°F , 12°C
Dew Point: 16°F , -9°C
Humidity: 22%
Barometer: 30.23 inHg , 1023.7 hPa
Clouds: Clear
Visibility: 10 miles , 16 km
2018/11/21 20:56 KINW 212056Z AUTO 00000KT 10SM CLR 12/M09 A3023 RMK AO2 SLP232 T01221089 58028 $
KHII - Lake Havasu City, Arizona, USA
Distance from station: WNW 136mi, 220km
Updated: Wed, 21-Nov-2018 1:55pm MST
Clear
Clear
 Wind from SSW
Wind: SSW 3 mph , 6 km/h
Temperature: 70°F , 21°C
Dew Point: 18°F , -8°C
Humidity: 13%
Barometer: 30.08 inHg , 1018.6 hPa
Clouds: Clear
Visibility: 10 miles , 16 km
2018/11/21 20:55 KHII 212055Z AUTO 21003KT 10SM CLR 21/M08 A3008 RMK AO2